Time;durP1;ratioP1;P1;durP2;ratioP2;P2;SDS_P1;SDS_P2;PMS_P1;PMS_P2;Temp;Humidity;BMP_temperature;BMP_pressure;BME280_temperature;BME280_humidity;BME280_pressure;Samples;Min_cycle;Max_cycle;Signal;HPM_P1;HPM_P2
2023/01/29 00:01:19;;;;;;;11.80;8.05;;;;;10.30;102811.00;;;;5074809;28;20206;-74
2023/01/29 00:03:46;;;;;;;13.13;7.85;;;;;10.30;102810.00;;;;5082202;28;20195;-74
2023/01/29 00:06:13;;;;;;;10.18;6.85;;;;;10.30;102810.00;;;;5087666;28;20201;-74
2023/01/29 00:08:42;;;;;;;11.50;7.82;;;;;10.30;102806.00;;;;5081555;28;20636;-74
2023/01/29 00:11:10;;;;;;;12.93;7.57;;;;;10.30;102800.00;;;;5085653;28;20209;-75
2023/01/29 00:13:37;;;;;;;12.38;8.80;;;;;10.30;102799.00;;;;5085805;28;20186;-74
2023/01/29 00:16:05;;;;;;;10.10;7.47;;;;;10.30;102788.00;;;;5085959;28;20649;-75
2023/01/29 00:18:32;;;;;;;12.73;8.10;;;;;10.30;102782.00;;;;5089691;28;20683;-74
2023/01/29 00:21:00;;;;;;;12.77;8.25;;;;;10.30;102778.00;;;;5074664;28;20199;-74
2023/01/29 00:23:27;;;;;;;12.73;7.95;;;;;10.30;102777.00;;;;5085130;28;20203;-74
2023/01/29 00:25:59;;;;;;;11.38;8.10;;;;;10.30;102772.00;;;;5083408;28;20695;-75
2023/01/29 00:28:26;;;;;;;11.50;7.90;;;;;10.30;102766.00;;;;5084808;28;20696;-74
2023/01/29 00:30:53;;;;;;;10.77;7.63;;;;;10.30;102770.00;;;;5082278;28;20194;-74
2023/01/29 00:33:21;;;;;;;13.55;8.48;;;;;10.30;102763.00;;;;5077551;28;20198;-74
2023/01/29 00:35:48;;;;;;;13.63;8.25;;;;;10.30;102759.00;;;;5069243;28;20206;-74
2023/01/29 00:38:15;;;;;;;11.02;7.68;;;;;10.30;102764.00;;;;5079487;28;20198;-74
2023/01/29 00:46:28;;;;;;;12.82;8.10;;;;;10.30;102777.00;;;;5016456;28;20227;-74
2023/01/29 00:48:55;;;;;;;12.85;7.55;;;;;10.30;102771.00;;;;5019622;28;20227;-74
2023/01/29 00:51:22;;;;;;;13.60;8.57;;;;;10.30;102776.00;;;;5048004;28;20195;-75
2023/01/29 00:53:50;;;;;;;10.52;8.05;;;;;10.30;102773.00;;;;5071127;28;20664;-74
2023/01/29 00:56:17;;;;;;;12.18;8.50;;;;;10.30;102770.00;;;;5082029;28;20201;-74
2023/01/29 00:58:45;;;;;;;12.32;8.10;;;;;10.20;102777.00;;;;5073917;28;20195;-74
2023/01/29 01:01:13;;;;;;;10.25;7.57;;;;;10.30;102772.00;;;;5078500;28;20202;-74
2023/01/29 01:03:41;;;;;;;12.95;8.57;;;;;10.30;102764.00;;;;5078482;28;20198;-74
2023/01/29 01:06:10;;;;;;;11.60;7.50;;;;;10.30;102762.00;;;;5080474;28;20194;-74
2023/01/29 01:11:22;;;;;;;11.60;8.10;;;;;10.30;102749.00;;;;5090142;28;20355;-74
2023/01/29 01:13:51;;;;;;;11.88;7.88;;;;;10.30;102755.00;;;;5087636;28;20226;-74
2023/01/29 01:16:19;;;;;;;13.55;8.88;;;;;10.30;102752.00;;;;5081756;28;20199;-75
2023/01/29 01:18:47;;;;;;;13.68;8.82;;;;;10.30;102741.00;;;;5069698;28;20361;-75
2023/01/29 01:21:14;;;;;;;12.98;8.85;;;;;10.30;102739.00;;;;5087664;28;20192;-74
2023/01/29 01:23:41;;;;;;;12.82;8.70;;;;;10.30;102731.00;;;;5076819;28;20217;-74
2023/01/29 01:26:12;;;;;;;13.32;8.75;;;;;10.30;102738.00;;;;5083847;28;20202;-74
2023/01/29 01:28:39;;;;;;;14.18;8.70;;;;;10.30;102736.00;;;;5077850;28;20703;-74
2023/01/29 01:31:12;;;;;;;11.55;8.68;;;;;10.30;102741.00;;;;5083032;28;20217;-74
2023/01/29 01:33:40;;;;;;;13.10;9.23;;;;;10.30;102737.00;;;;5083324;28;20464;-74
2023/01/29 01:36:08;;;;;;;11.82;7.88;;;;;10.30;102743.00;;;;5070506;28;20187;-74
2023/01/29 01:38:43;;;;;;;13.38;8.65;;;;;10.30;102752.00;;;;5072929;28;20261;-74
2023/01/29 01:41:11;;;;;;;11.45;8.35;;;;;10.30;102751.00;;;;5070771;28;20209;-74
2023/01/29 01:43:52;;;;;;;13.60;9.45;;;;;10.20;102753.00;;;;5070598;28;20237;-74
2023/01/29 01:46:22;;;;;;;10.40;8.07;;;;;10.30;102750.00;;;;5082660;28;20222;-74
2023/01/29 01:48:54;;;;;;;13.02;8.32;;;;;10.30;102750.00;;;;5072345;28;20218;-74
2023/01/29 01:51:23;;;;;;;12.35;8.57;;;;;10.30;102753.00;;;;5083074;28;20631;-74
2023/01/29 01:53:55;;;;;;;11.63;8.38;;;;;10.30;102762.00;;;;5072450;28;20199;-74
2023/01/29 01:56:26;;;;;;;12.38;8.95;;;;;10.30;102748.00;;;;5069101;28;20199;-74
2023/01/29 01:58:56;;;;;;;15.35;9.35;;;;;10.30;102753.00;;;;5078378;28;20221;-74
2023/01/29 02:01:27;;;;;;;11.82;8.32;;;;;10.30;102762.00;;;;5072338;28;20198;-74
2023/01/29 02:09:35;;;;;;;11.70;7.95;;;;;10.30;102751.00;;;;5085280;28;20731;-74
2023/01/29 02:12:04;;;;;;;12.57;9.07;;;;;10.30;102741.00;;;;5084803;28;20200;-74
2023/01/29 02:14:33;;;;;;;12.18;8.10;;;;;10.30;102748.00;;;;5084086;28;20655;-74
2023/01/29 02:17:02;;;;;;;12.82;9.07;;;;;10.30;102747.00;;;;5071550;28;20191;-74
2023/01/29 02:19:41;;;;;;;14.45;9.48;;;;;10.30;102749.00;;;;5085771;28;20201;-74
2023/01/29 02:22:28;;;;;;;13.07;9.40;;;;;10.20;102739.00;;;;5087390;28;20680;-74
2023/01/29 02:25:36;;;;;;;11.70;8.35;;;;;10.30;102739.00;;;;5068307;28;20210;-74
2023/01/29 02:28:29;;;;;;;14.38;8.73;;;;;10.20;102742.00;;;;5069342;28;20214;-75
2023/01/29 02:31:04;;;;;;;13.57;9.27;;;;;10.30;102743.00;;;;5068666;28;20191;-74
2023/01/29 02:33:41;;;;;;;13.52;8.77;;;;;10.30;102748.00;;;;5086750;28;20198;-75
2023/01/29 02:36:17;;;;;;;12.02;8.20;;;;;10.30;102741.00;;;;5078407;28;20216;-74
2023/01/29 02:38:50;;;;;;;14.32;9.75;;;;;10.30;102738.00;;;;5083512;28;20198;-74
2023/01/29 02:41:26;;;;;;;14.13;8.73;;;;;10.30;102754.00;;;;5077117;28;20195;-74
2023/01/29 02:44:04;;;;;;;11.70;8.35;;;;;10.30;102756.00;;;;5080316;28;20202;-74
2023/01/29 02:46:37;;;;;;;12.25;8.65;;;;;10.40;102762.00;;;;5085101;28;20584;-74
2023/01/29 02:49:11;;;;;;;12.13;7.85;;;;;10.30;102758.00;;;;5079102;28;20805;-74
2023/01/29 02:51:44;;;;;;;12.95;9.18;;;;;10.40;102760.00;;;;5088360;28;20260;-74
2023/01/29 02:54:16;;;;;;;13.10;9.18;;;;;10.40;102750.00;;;;5086531;28;20202;-74
2023/01/29 02:56:53;;;;;;;13.93;9.23;;;;;10.40;102750.00;;;;5067392;28;20199;-74
2023/01/29 02:59:25;;;;;;;12.00;8.75;;;;;10.40;102758.00;;;;5080520;28;20636;-74
2023/01/29 03:01:56;;;;;;;13.48;9.10;;;;;10.40;102753.00;;;;5074122;28;20634;-74
2023/01/29 03:04:30;;;;;;;12.35;9.00;;;;;10.40;102746.00;;;;5085369;28;20202;-74
2023/01/29 03:07:01;;;;;;;13.38;8.65;;;;;10.40;102756.00;;;;5077448;28;20204;-74
2023/01/29 03:09:33;;;;;;;16.00;10.05;;;;;10.40;102753.00;;;;5079404;28;20221;-74
2023/01/29 03:12:17;;;;;;;13.32;9.40;;;;;10.40;102756.00;;;;5082610;28;20695;-75
2023/01/29 03:17:38;;;;;;;13.98;9.23;;;;;10.40;102749.00;;;;5086550;28;20730;-74
2023/01/29 03:20:13;;;;;;;14.63;9.15;;;;;10.40;102745.00;;;;5087881;28;20197;-74
2023/01/29 03:22:43;;;;;;;14.40;10.40;;;;;10.40;102742.00;;;;5069766;28;20186;-74
2023/01/29 03:33:42;;;;;;;12.30;8.38;;;;;10.40;102722.00;;;;5076799;28;20572;-74
2023/01/29 03:36:14;;;;;;;14.63;9.65;;;;;10.40;102719.00;;;;5072405;28;20692;-74
2023/01/29 03:38:41;;;;;;;13.20;8.73;;;;;10.40;102721.00;;;;5072453;28;20622;-74
2023/01/29 03:41:14;;;;;;;15.55;9.75;;;;;10.40;102710.00;;;;5069103;28;20656;-74
2023/01/29 03:43:50;;;;;;;13.40;8.85;;;;;10.40;102709.00;;;;5067551;28;20228;-75
2023/01/29 03:46:27;;;;;;;14.10;9.35;;;;;10.40;102701.00;;;;5084759;28;20233;-74
2023/01/29 03:49:00;;;;;;;15.73;10.50;;;;;10.40;102699.00;;;;5080000;28;20271;-75
2023/01/29 03:51:32;;;;;;;13.38;9.20;;;;;10.40;102704.00;;;;5086350;28;20206;-75
2023/01/29 03:54:07;;;;;;;13.30;8.95;;;;;10.40;102698.00;;;;5079331;28;20195;-74
2023/01/29 03:56:49;;;;;;;16.60;10.10;;;;;10.40;102709.00;;;;5078763;28;20194;-74
2023/01/29 03:59:22;;;;;;;13.30;8.90;;;;;10.30;102698.00;;;;5071719;28;20210;-75
2023/01/29 04:01:56;;;;;;;16.70;10.20;;;;;10.30;102702.00;;;;5086981;28;20194;-74
2023/01/29 04:04:27;;;;;;;12.27;9.25;;;;;10.30;102706.00;;;;5076010;28;20207;-75
2023/01/29 04:06:58;;;;;;;15.05;10.18;;;;;10.40;102696.00;;;;5087574;28;20201;-75
2023/01/29 04:09:30;;;;;;;15.43;10.30;;;;;10.30;102689.00;;;;5079248;28;20229;-74
2023/01/29 04:12:03;;;;;;;15.27;10.13;;;;;10.30;102684.00;;;;5071341;28;20201;-74
2023/01/29 04:14:32;;;;;;;13.30;9.65;;;;;10.30;102683.00;;;;5074776;28;20199;-74
2023/01/29 04:17:06;;;;;;;14.60;9.95;;;;;10.30;102668.00;;;;5081101;28;20678;-74
2023/01/29 04:19:34;;;;;;;16.33;11.38;;;;;10.30;102673.00;;;;5086111;28;20769;-74
2023/01/29 04:22:06;;;;;;;13.75;9.48;;;;;10.30;102680.00;;;;5090291;28;20207;-74
2023/01/29 04:24:35;;;;;;;15.73;10.25;;;;;10.30;102667.00;;;;5076723;28;20187;-74
2023/01/29 04:27:16;;;;;;;17.38;10.95;;;;;10.20;102670.00;;;;5071302;28;20209;-74
2023/01/29 04:29:57;;;;;;;14.35;9.70;;;;;10.20;102677.00;;;;5086370;28;20587;-74
2023/01/29 04:32:31;;;;;;;14.40;9.85;;;;;10.20;102681.00;;;;5076559;28;20194;-74
2023/01/29 04:35:05;;;;;;;15.32;10.27;;;;;10.20;102668.00;;;;5089589;28;20204;-74
2023/01/29 04:37:38;;;;;;;15.45;9.90;;;;;10.20;102668.00;;;;5090848;28;20206;-75
2023/01/29 04:40:18;;;;;;;15.50;9.50;;;;;10.10;102667.00;;;;5091435;28;20186;-74
2023/01/29 04:42:53;;;;;;;14.48;9.77;;;;;10.20;102667.00;;;;5076475;28;20195;-74
2023/01/29 04:45:28;;;;;;;14.23;9.45;;;;;10.20;102660.00;;;;5078679;28;20191;-75
2023/01/29 04:48:05;;;;;;;14.85;9.52;;;;;10.20;102662.00;;;;5078778;28;20191;-74
2023/01/29 04:50:37;;;;;;;15.90;10.82;;;;;10.20;102662.00;;;;5073642;28;20229;-74
2023/01/29 04:53:10;;;;;;;15.35;10.60;;;;;10.20;102656.00;;;;5086467;28;20190;-74
2023/01/29 04:55:43;;;;;;;13.95;9.52;;;;;10.20;102664.00;;;;5080397;28;20187;-74
2023/01/29 04:58:16;;;;;;;13.18;9.40;;;;;10.20;102655.00;;;;5078314;28;20191;-74
2023/01/29 05:00:46;;;;;;;15.05;10.23;;;;;10.20;102655.00;;;;5077418;28;20199;-74
2023/01/29 05:03:16;;;;;;;14.50;10.15;;;;;10.20;102654.00;;;;5083404;28;20202;-74
2023/01/29 05:05:45;;;;;;;13.77;10.25;;;;;10.20;102653.00;;;;5074741;28;20191;-74
2023/01/29 05:08:15;;;;;;;13.50;9.93;;;;;10.20;102642.00;;;;5080934;28;20217;-74
2023/01/29 05:10:43;;;;;;;13.80;10.23;;;;;10.20;102627.00;;;;5075293;28;20225;-74
2023/01/29 05:13:14;;;;;;;15.18;9.65;;;;;10.20;102633.00;;;;5082219;28;20191;-74
2023/01/29 05:15:48;;;;;;;14.35;9.88;;;;;10.20;102633.00;;;;5077711;28;20198;-74
2023/01/29 05:18:17;;;;;;;14.73;10.15;;;;;10.20;102635.00;;;;5076626;28;20186;-74
2023/01/29 05:20:46;;;;;;;14.88;10.20;;;;;10.20;102633.00;;;;5072608;28;20234;-74
2023/01/29 05:23:17;;;;;;;14.25;9.65;;;;;10.20;102641.00;;;;5080656;28;20198;-74
2023/01/29 05:25:45;;;;;;;15.70;9.90;;;;;10.20;102641.00;;;;5074465;28;20198;-74
2023/01/29 05:28:15;;;;;;;12.23;8.98;;;;;10.20;102643.00;;;;5087485;28;20233;-74
2023/01/29 05:30:44;;;;;;;13.20;9.48;;;;;10.20;102653.00;;;;5072639;28;20230;-74
2023/01/29 05:33:14;;;;;;;13.70;9.32;;;;;10.20;102660.00;;;;5075161;28;20198;-74
2023/01/29 05:35:43;;;;;;;12.57;8.93;;;;;10.20;102650.00;;;;5080288;28;20198;-74
2023/01/29 05:38:10;;;;;;;14.65;10.45;;;;;10.30;102645.00;;;;5078634;28;20191;-74
2023/01/29 05:40:38;;;;;;;15.05;9.75;;;;;10.20;102644.00;;;;5076976;28;20763;-74
2023/01/29 05:43:13;;;;;;;13.48;9.63;;;;;10.30;102646.00;;;;5074784;28;20599;-74
2023/01/29 05:45:40;;;;;;;14.57;9.60;;;;;10.30;102648.00;;;;5079287;28;20230;-74
2023/01/29 05:48:08;;;;;;;12.50;9.43;;;;;10.30;102644.00;;;;5079564;28;20199;-74
2023/01/29 05:50:35;;;;;;;11.85;8.90;;;;;10.30;102648.00;;;;5075369;28;20238;-74
2023/01/29 05:53:04;;;;;;;11.55;8.75;;;;;10.30;102650.00;;;;5069694;28;20198;-74
2023/01/29 05:55:31;;;;;;;13.25;9.73;;;;;10.30;102644.00;;;;5077210;28;20209;-74
2023/01/29 05:57:59;;;;;;;14.23;9.88;;;;;10.30;102645.00;;;;5082544;28;20190;-74
2023/01/29 06:00:26;;;;;;;12.13;9.25;;;;;10.30;102650.00;;;;5074727;28;20209;-74
2023/01/29 06:02:54;;;;;;;11.52;8.65;;;;;10.30;102644.00;;;;5074894;28;20199;-74
2023/01/29 06:05:21;;;;;;;15.15;9.45;;;;;10.30;102639.00;;;;5076501;28;20213;-74
2023/01/29 06:07:48;;;;;;;13.18;9.70;;;;;10.30;102627.00;;;;5072967;28;20197;-74
2023/01/29 06:10:18;;;;;;;16.55;10.23;;;;;10.30;102626.00;;;;5084377;28;20218;-74
2023/01/29 06:12:45;;;;;;;13.63;9.40;;;;;10.30;102620.00;;;;5071889;28;20198;-74
2023/01/29 06:15:14;;;;;;;11.80;9.13;;;;;10.30;102619.00;;;;5076941;28;20669;-74
2023/01/29 06:17:42;;;;;;;11.80;9.48;;;;;10.30;102616.00;;;;5070433;28;20540;-74
2023/01/29 06:20:10;;;;;;;14.82;9.75;;;;;10.30;102606.00;;;;5083929;28;20194;-74
2023/01/29 06:22:38;;;;;;;14.23;9.52;;;;;10.30;102611.00;;;;5076756;28;20203;-74
2023/01/29 06:25:06;;;;;;;12.15;9.38;;;;;10.30;102609.00;;;;5072269;28;20187;-74
2023/01/29 06:27:35;;;;;;;14.13;9.60;;;;;10.30;102608.00;;;;5080455;28;20194;-74
2023/01/29 06:30:02;;;;;;;13.07;9.02;;;;;10.30;102602.00;;;;5068216;28;20226;-74
2023/01/29 06:32:29;;;;;;;13.13;9.10;;;;;10.30;102603.00;;;;5072216;28;20206;-73
2023/01/29 06:34:56;;;;;;;12.63;8.57;;;;;10.30;102603.00;;;;5067973;28;20191;-74
2023/01/29 06:37:24;;;;;;;11.88;8.68;;;;;10.30;102604.00;;;;5081594;28;20548;-74
2023/01/29 06:39:51;;;;;;;14.27;9.93;;;;;10.30;102595.00;;;;5076900;28;20195;-74
2023/01/29 06:42:19;;;;;;;13.05;9.45;;;;;10.30;102594.00;;;;5077780;28;20195;-74
2023/01/29 06:44:48;;;;;;;14.15;9.65;;;;;10.30;102605.00;;;;5084646;28;20222;-74
2023/01/29 06:47:15;;;;;;;14.25;9.40;;;;;10.30;102604.00;;;;5073860;28;20262;-74
2023/01/29 06:49:43;;;;;;;14.48;8.82;;;;;10.30;102602.00;;;;5076189;28;20730;-74
2023/01/29 06:52:10;;;;;;;16.20;9.45;;;;;10.30;102602.00;;;;5068107;28;20756;-74
2023/01/29 06:54:38;;;;;;;13.35;9.98;;;;;10.30;102601.00;;;;5076749;28;20211;-74
2023/01/29 06:57:05;;;;;;;13.95;10.35;;;;;10.30;102600.00;;;;5069051;28;20191;-74
2023/01/29 06:59:33;;;;;;;12.35;8.82;;;;;10.30;102600.00;;;;5077551;28;20199;-74
2023/01/29 07:02:02;;;;;;;11.75;8.82;;;;;10.30;102606.00;;;;5074466;28;20724;-74
2023/01/29 07:04:30;;;;;;;13.13;9.43;;;;;10.30;102600.00;;;;5070432;28;20211;-74
2023/01/29 07:06:58;;;;;;;13.50;10.02;;;;;10.30;102596.00;;;;5085409;28;20194;-74
2023/01/29 07:09:26;;;;;;;13.27;9.52;;;;;10.30;102603.00;;;;5081885;28;20209;-74
2023/01/29 07:11:53;;;;;;;13.48;9.60;;;;;10.30;102598.00;;;;5075550;28;20187;-74
2023/01/29 07:14:20;;;;;;;12.10;9.15;;;;;10.30;102594.00;;;;5077228;28;20209;-74
2023/01/29 07:16:48;;;;;;;12.15;9.10;;;;;10.20;102588.00;;;;5075320;28;20210;-74
2023/01/29 07:19:16;;;;;;;11.82;9.18;;;;;10.20;102591.00;;;;5086653;28;20189;-74
2023/01/29 07:21:44;;;;;;;13.48;9.48;;;;;10.20;102599.00;;;;5078051;28;20209;-74
2023/01/29 07:24:11;;;;;;;12.95;9.57;;;;;10.30;102605.00;;;;5072808;28;20198;-75
2023/01/29 07:26:38;;;;;;;12.93;9.48;;;;;10.20;102597.00;;;;5070348;28;20194;-74
2023/01/29 07:29:05;;;;;;;14.98;10.13;;;;;10.30;102597.00;;;;5074117;28;20198;-74
2023/01/29 07:31:33;;;;;;;13.75;9.27;;;;;10.30;102599.00;;;;5076044;28;20229;-75
2023/01/29 07:34:00;;;;;;;11.77;8.57;;;;;10.30;102598.00;;;;5075005;28;20194;-74
2023/01/29 07:36:29;;;;;;;12.88;9.35;;;;;10.20;102604.00;;;;5078316;28;20200;-74
2023/01/29 07:38:56;;;;;;;13.32;9.70;;;;;10.30;102598.00;;;;5069861;28;20241;-74
2023/01/29 07:41:24;;;;;;;13.55;10.05;;;;;10.20;102597.00;;;;5082330;28;20195;-74
2023/01/29 07:43:51;;;;;;;12.38;9.63;;;;;10.20;102601.00;;;;5070094;28;20206;-75
2023/01/29 07:46:19;;;;;;;12.35;8.90;;;;;10.20;102602.00;;;;5081865;28;20237;-75
2023/01/29 07:48:46;;;;;;;13.25;9.52;;;;;10.20;102596.00;;;;5077008;28;20195;-73
2023/01/29 07:51:13;;;;;;;15.80;10.23;;;;;10.20;102598.00;;;;5076348;28;20237;-74
2023/01/29 07:53:43;;;;;;;11.98;9.27;;;;;10.20;102581.00;;;;5073353;28;20202;-74
2023/01/29 07:56:15;;;;;;;11.57;8.50;;;;;10.20;102582.00;;;;5076374;28;20205;-75
2023/01/29 07:58:42;;;;;;;11.02;8.45;;;;;10.20;102580.00;;;;5074881;28;20203;-75
2023/01/29 08:01:10;;;;;;;14.38;9.75;;;;;10.20;102576.00;;;;5077645;28;20215;-75
2023/01/29 08:03:37;;;;;;;13.75;9.75;;;;;10.20;102576.00;;;;5075036;28;20431;-74
2023/01/29 08:06:05;;;;;;;12.25;9.60;;;;;10.20;102570.00;;;;5074473;28;20198;-74
2023/01/29 08:08:32;;;;;;;12.85;8.82;;;;;10.30;102561.00;;;;5078325;28;20579;-74
2023/01/29 08:11:04;;;;;;;13.63;9.35;;;;;10.20;102566.00;;;;5075598;28;20703;-74
2023/01/29 08:13:32;;;;;;;12.15;8.85;;;;;10.20;102558.00;;;;5072529;28;20205;-74
2023/01/29 08:16:01;;;;;;;15.70;10.07;;;;;10.30;102555.00;;;;5073849;28;20211;-75
2023/01/29 08:18:30;;;;;;;12.85;9.43;;;;;10.30;102560.00;;;;5074416;28;20253;-74
2023/01/29 08:21:00;;;;;;;12.32;9.65;;;;;10.20;102557.00;;;;5073716;28;20649;-74
2023/01/29 08:23:27;;;;;;;11.82;8.82;;;;;10.20;102561.00;;;;5072232;28;20194;-74
2023/01/29 08:25:55;;;;;;;11.18;8.43;;;;;10.20;102555.00;;;;5074384;28;20190;-75
2023/01/29 08:28:23;;;;;;;14.25;9.88;;;;;10.20;102550.00;;;;5085079;28;20927;-74
2023/01/29 08:30:50;;;;;;;12.95;9.02;;;;;10.20;102551.00;;;;5078728;28;20691;-74
2023/01/29 08:33:18;;;;;;;10.98;8.27;;;;;10.20;102551.00;;;;5077350;28;20195;-75
2023/01/29 08:35:49;;;;;;;13.68;9.32;;;;;10.20;102547.00;;;;5072423;28;20199;-74
2023/01/29 08:38:17;;;;;;;12.80;9.20;;;;;10.20;102553.00;;;;5072792;28;20226;-74
2023/01/29 08:40:44;;;;;;;13.32;10.00;;;;;10.20;102545.00;;;;5089065;28;20205;-74
2023/01/29 08:43:13;;;;;;;14.50;9.07;;;;;10.20;102537.00;;;;5078716;28;20195;-74
2023/01/29 08:45:43;;;;;;;14.40;10.18;;;;;10.20;102536.00;;;;5069386;28;20590;-74
2023/01/29 08:48:11;;;;;;;12.15;8.82;;;;;10.20;102535.00;;;;5074619;28;20202;-73
2023/01/29 08:50:38;;;;;;;11.52;8.70;;;;;10.20;102530.00;;;;5087690;28;20599;-74
2023/01/29 08:53:07;;;;;;;14.07;9.43;;;;;10.20;102534.00;;;;5078532;28;20206;-75
2023/01/29 08:55:37;;;;;;;15.50;10.95;;;;;10.20;102519.00;;;;5081037;28;20284;-75
2023/01/29 08:58:05;;;;;;;12.35;8.85;;;;;10.20;102521.00;;;;5087929;28;20206;-74
2023/01/29 09:00:32;;;;;;;13.35;9.35;;;;;10.20;102520.00;;;;5077677;28;20202;-74
2023/01/29 09:03:01;;;;;;;13.50;9.73;;;;;10.20;102516.00;;;;5079191;28;20198;-74
2023/01/29 09:05:28;;;;;;;16.85;10.18;;;;;10.20;102519.00;;;;5079080;28;20198;-74
2023/01/29 09:07:57;;;;;;;14.50;9.35;;;;;10.20;102520.00;;;;5078233;28;20198;-74
2023/01/29 09:10:24;;;;;;;12.82;9.50;;;;;10.20;102524.00;;;;5082128;28;20222;-74
2023/01/29 09:12:52;;;;;;;11.43;9.63;;;;;10.20;102526.00;;;;5081380;28;20202;-74
2023/01/29 09:15:19;;;;;;;13.98;9.88;;;;;10.20;102527.00;;;;5078598;28;20202;-74
2023/01/29 09:17:48;;;;;;;12.90;9.40;;;;;10.20;102532.00;;;;5077240;28;20202;-75
2023/01/29 09:20:17;;;;;;;13.45;9.02;;;;;10.20;102524.00;;;;5076385;28;20206;-74
2023/01/29 09:22:44;;;;;;;14.57;9.57;;;;;10.20;102524.00;;;;5078792;28;20259;-74
2023/01/29 09:25:11;;;;;;;12.70;8.57;;;;;10.20;102526.00;;;;5077268;28;20198;-74
2023/01/29 09:27:39;;;;;;;12.35;9.00;;;;;10.30;102526.00;;;;5074756;28;20229;-75
2023/01/29 09:30:07;;;;;;;12.10;9.05;;;;;10.20;102521.00;;;;5077981;28;20633;-74
2023/01/29 09:32:35;;;;;;;12.52;9.40;;;;;10.30;102525.00;;;;5078802;28;20201;-74
2023/01/29 09:35:02;;;;;;;12.60;9.15;;;;;10.30;102520.00;;;;5085080;28;20190;-74
2023/01/29 09:37:31;;;;;;;13.77;8.68;;;;;10.30;102527.00;;;;5080332;28;20203;-75
2023/01/29 09:39:58;;;;;;;13.20;8.95;;;;;10.40;102513.00;;;;5088510;28;20206;-74
2023/01/29 09:42:29;;;;;;;14.18;10.45;;;;;10.40;102512.00;;;;5088014;28;20658;-75
2023/01/29 09:45:04;;;;;;;12.40;9.15;;;;;10.40;102514.00;;;;5068709;28;20203;-74
2023/01/29 09:47:35;;;;;;;14.95;10.00;;;;;10.40;102514.00;;;;5078854;28;20261;-74
2023/01/29 09:50:08;;;;;;;13.45;9.13;;;;;10.40;102516.00;;;;5079107;28;20217;-74
2023/01/29 09:52:39;;;;;;;12.70;8.93;;;;;10.50;102514.00;;;;5088379;28;20206;-75
2023/01/29 09:55:14;;;;;;;12.63;8.55;;;;;10.50;102508.00;;;;5083326;28;20570;-74
2023/01/29 09:57:47;;;;;;;12.48;9.30;;;;;10.50;102512.00;;;;5069556;28;20200;-73
2023/01/29 10:00:18;;;;;;;11.93;8.65;;;;;10.60;102509.00;;;;5078529;28;20510;-74
2023/01/29 10:03:07;;;;;;;13.10;9.00;;;;;10.50;102514.00;;;;5088843;28;20206;-73
2023/01/29 10:05:49;;;;;;;11.68;9.35;;;;;10.60;102514.00;;;;5072001;28;20222;-73
2023/01/29 10:08:36;;;;;;;14.63;8.93;;;;;10.60;102515.00;;;;5069015;28;20576;-74
2023/01/29 10:11:11;;;;;;;12.25;9.02;;;;;10.60;102519.00;;;;5072367;28;20225;-74
2023/01/29 10:13:48;;;;;;;14.13;9.93;;;;;10.70;102511.00;;;;5068995;28;20201;-73
2023/01/29 10:16:31;;;;;;;12.80;9.65;;;;;10.70;102509.00;;;;5075275;28;20202;-73
2023/01/29 10:19:19;;;;;;;12.73;8.90;;;;;10.70;102514.00;;;;5088379;28;20195;-73
2023/01/29 10:22:02;;;;;;;12.38;8.35;;;;;10.70;102511.00;;;;5089302;28;20205;-73
2023/01/29 10:24:38;;;;;;;12.82;10.10;;;;;10.80;102521.00;;;;5089278;28;20198;-73
2023/01/29 10:27:14;;;;;;;12.40;8.73;;;;;10.80;102517.00;;;;5079267;28;20614;-73
2023/01/29 10:29:43;;;;;;;12.45;8.32;;;;;10.90;102506.00;;;;5079059;28;20195;-73
2023/01/29 10:32:16;;;;;;;14.85;9.32;;;;;10.80;102496.00;;;;5071636;28;20223;-73
2023/01/29 10:34:48;;;;;;;12.57;9.57;;;;;10.80;102502.00;;;;5081676;28;20213;-73
2023/01/29 10:37:18;;;;;;;10.52;8.65;;;;;10.90;102499.00;;;;5077621;28;20211;-73
2023/01/29 10:39:46;;;;;;;14.57;9.48;;;;;10.90;102494.00;;;;5068376;28;20276;-73
2023/01/29 10:42:24;;;;;;;12.40;9.82;;;;;10.90;102490.00;;;;5068901;28;20202;-73
2023/01/29 10:45:13;;;;;;;12.15;8.82;;;;;10.80;102490.00;;;;5067838;28;20195;-73
2023/01/29 10:48:17;;;;;;;12.60;8.70;;;;;10.80;102485.00;;;;5067651;28;20234;-73
2023/01/29 10:50:51;;;;;;;12.50;8.75;;;;;10.90;102477.00;;;;5073090;28;20812;-73
2023/01/29 10:53:46;;;;;;;13.55;8.93;;;;;10.80;102469.00;;;;5087767;28;20201;-73
2023/01/29 10:56:33;;;;;;;12.10;9.32;;;;;10.80;102464.00;;;;5078355;28;20191;-73
2023/01/29 10:59:04;;;;;;;13.00;9.82;;;;;10.90;102447.00;;;;5085772;28;20194;-73
2023/01/29 11:01:32;;;;;;;13.32;9.65;;;;;10.90;102460.00;;;;5070312;28;20207;-73
2023/01/29 11:04:02;;;;;;;14.82;9.82;;;;;10.90;102452.00;;;;5069083;28;20199;-73
2023/01/29 11:06:32;;;;;;;12.35;9.80;;;;;10.90;102444.00;;;;5071539;28;20248;-72
2023/01/29 11:09:08;;;;;;;13.38;9.20;;;;;10.90;102438.00;;;;5088849;28;20213;-73
2023/01/29 11:11:44;;;;;;;13.18;9.07;;;;;11.00;102436.00;;;;5068037;28;20226;-73
2023/01/29 11:14:16;;;;;;;13.98;10.40;;;;;11.00;102435.00;;;;5068438;28;20198;-73
2023/01/29 11:16:46;;;;;;;14.65;11.25;;;;;11.10;102430.00;;;;5069547;28;20194;-74
2023/01/29 11:19:14;;;;;;;14.23;9.95;;;;;11.10;102426.00;;;;5085400;28;20201;-73
2023/01/29 11:21:53;;;;;;;15.82;11.68;;;;;11.00;102424.00;;;;5087425;28;20560;-73
2023/01/29 11:24:20;;;;;;;15.70;10.32;;;;;11.10;102422.00;;;;5086321;28;20676;-73
2023/01/29 11:26:52;;;;;;;18.13;11.13;;;;;11.10;102423.00;;;;5081222;28;20634;-73
2023/01/29 11:29:37;;;;;;;15.45;11.00;;;;;11.00;102422.00;;;;5079611;28;20198;-73
2023/01/29 11:32:06;;;;;;;16.15;11.05;;;;;11.10;102417.00;;;;5085996;28;20225;-73
2023/01/29 11:34:34;;;;;;;14.15;9.85;;;;;11.10;102416.00;;;;5066826;28;20206;-73
2023/01/29 11:37:03;;;;;;;13.65;9.85;;;;;11.20;102412.00;;;;5067469;28;20191;-73
2023/01/29 11:39:31;;;;;;;15.48;10.60;;;;;11.20;102415.00;;;;5067488;28;20560;-73
2023/01/29 11:42:02;;;;;;;16.27;11.45;;;;;11.20;102414.00;;;;5074044;28;20571;-73
2023/01/29 11:44:32;;;;;;;14.95;10.55;;;;;11.20;102413.00;;;;5072419;28;20209;-73
2023/01/29 11:47:12;;;;;;;15.45;11.07;;;;;11.10;102410.00;;;;5073405;28;20225;-73
2023/01/29 11:49:44;;;;;;;16.08;11.38;;;;;11.20;102404.00;;;;5086958;28;20241;-73
2023/01/29 11:52:13;;;;;;;15.25;11.00;;;;;11.20;102402.00;;;;5087571;28;20225;-73
2023/01/29 11:54:47;;;;;;;14.60;11.23;;;;;11.20;102395.00;;;;5072304;28;20210;-73
2023/01/29 11:57:26;;;;;;;14.07;10.00;;;;;11.10;102382.00;;;;5067816;28;20195;-74
2023/01/29 11:59:55;;;;;;;14.63;10.93;;;;;11.20;102386.00;;;;5082306;28;20681;-73
2023/01/29 12:02:34;;;;;;;15.13;10.57;;;;;11.10;102388.00;;;;5088279;28;20213;-73
2023/01/29 12:05:06;;;;;;;13.50;9.93;;;;;11.20;102386.00;;;;5068531;28;20210;-74
2023/01/29 12:07:34;;;;;;;14.30;10.50;;;;;11.30;102381.00;;;;5077525;28;20198;-73
2023/01/29 12:10:02;;;;;;;15.45;10.07;;;;;11.30;102371.00;;;;5087720;28;20194;-73
2023/01/29 12:12:41;;;;;;;14.70;10.45;;;;;11.20;102362.00;;;;5072188;28;20230;-74
2023/01/29 12:15:21;;;;;;;16.50;11.95;;;;;11.20;102361.00;;;;5073239;28;20210;-73
2023/01/29 12:18:00;;;;;;;15.07;11.43;;;;;11.20;102354.00;;;;5074546;28;20691;-74
2023/01/29 12:20:33;;;;;;;15.25;10.52;;;;;11.20;102356.00;;;;5081005;28;20672;-75
2023/01/29 12:23:10;;;;;;;18.05;11.80;;;;;11.20;102341.00;;;;5081200;28;20680;-74
2023/01/29 12:25:54;;;;;;;14.80;10.55;;;;;11.20;102342.00;;;;5079254;28;20206;-75
2023/01/29 12:28:34;;;;;;;15.02;10.77;;;;;11.20;102334.00;;;;5070126;28;20199;-74
2023/01/29 12:31:15;;;;;;;15.90;11.10;;;;;11.20;102328.00;;;;5089088;28;20664;-74
2023/01/29 12:33:50;;;;;;;16.83;12.90;;;;;11.30;102326.00;;;;5085469;28;20210;-75
2023/01/29 12:36:23;;;;;;;17.60;12.48;;;;;11.20;102329.00;;;;5090214;28;20567;-75
2023/01/29 12:38:50;;;;;;;16.40;11.68;;;;;11.30;102321.00;;;;5070755;28;20198;-75
2023/01/29 12:41:30;;;;;;;17.27;11.55;;;;;11.20;102309.00;;;;5082521;28;20194;-74